createdAt,value
2023-04-03T00:00:37.774Z,24.60
2023-04-03T00:01:37.561Z,24.61
2023-04-03T00:02:37.735Z,24.61
2023-04-03T00:03:37.577Z,24.61
2023-04-03T00:04:37.737Z,24.60
2023-04-03T00:05:37.644Z,24.61
2023-04-03T00:06:37.631Z,24.60
2023-04-03T00:07:37.671Z,24.60
2023-04-03T00:08:37.690Z,24.58
2023-04-03T00:09:37.693Z,24.61
2023-04-03T00:10:38.077Z,24.58
2023-04-03T00:11:37.733Z,24.58
2023-04-03T00:12:37.780Z,24.61
2023-04-03T00:13:37.774Z,24.61
2023-04-03T00:14:37.799Z,24.62
2023-04-03T00:15:37.821Z,24.57
2023-04-03T00:16:37.919Z,24.60
2023-04-03T00:17:37.913Z,24.60
2023-04-03T00:18:37.906Z,24.60
2023-04-03T00:19:37.915Z,24.58
2023-04-03T00:20:38.237Z,24.61
2023-04-03T00:21:37.955Z,24.60
2023-04-03T00:22:37.981Z,24.61
2023-04-03T00:23:37.998Z,24.58
2023-04-03T00:24:38.028Z,24.60
2023-04-03T00:25:38.045Z,24.60
2023-04-03T00:26:38.063Z,24.60
2023-04-03T00:27:38.099Z,24.55
2023-04-03T00:28:37.143Z,24.58
2023-04-03T00:29:38.133Z,24.58
2023-04-03T00:30:38.562Z,24.61
2023-04-03T00:31:38.178Z,24.61
2023-04-03T00:32:38.236Z,24.61
2023-04-03T00:33:38.227Z,24.61
2023-04-03T00:34:38.250Z,24.58
2023-04-03T00:35:38.342Z,24.60
2023-04-03T00:36:38.419Z,24.60
2023-04-03T00:37:38.309Z,24.60
2023-04-03T00:38:38.341Z,24.60
2023-04-03T00:39:38.358Z,24.60
2023-04-03T00:40:38.688Z,24.60
2023-04-03T00:41:38.408Z,24.60
2023-04-03T00:42:38.914Z,24.58
2023-04-03T00:43:38.522Z,24.58
2023-04-03T00:44:38.479Z,24.57
2023-04-03T00:45:38.514Z,24.58
2023-04-03T00:46:38.584Z,24.58
2023-04-03T00:47:38.577Z,24.60
2023-04-03T00:48:38.618Z,24.58
2023-04-03T00:49:38.692Z,24.60
2023-04-03T00:50:38.949Z,24.61
2023-04-03T00:51:38.778Z,24.60
2023-04-03T00:52:38.821Z,24.61
2023-04-03T00:53:38.873Z,24.61
2023-04-03T00:54:38.939Z,24.60
2023-04-03T00:55:38.979Z,24.61
2023-04-03T00:56:39.054Z,24.58
2023-04-03T00:57:39.093Z,24.61
2023-04-03T00:58:39.158Z,24.61
2023-04-03T00:59:39.231Z,24.61
2023-04-03T01:00:39.493Z,24.58
2023-04-03T01:01:39.362Z,24.61
2023-04-03T01:02:39.377Z,24.60
2023-04-03T01:03:39.424Z,24.61
2023-04-03T01:04:39.631Z,24.58
2023-04-03T01:05:39.543Z,24.61
2023-04-03T01:06:39.602Z,24.60
2023-04-03T01:07:39.662Z,24.58
2023-04-03T01:08:39.724Z,24.58
2023-04-03T01:09:39.777Z,24.57
2023-04-03T01:10:40.358Z,24.55
2023-04-03T01:11:39.887Z,24.57
2023-04-03T01:12:40.457Z,24.58
2023-04-03T01:13:39.948Z,24.57
2023-04-03T01:14:39.959Z,24.57
2023-04-03T01:15:40.046Z,24.57
2023-04-03T01:16:39.972Z,24.60
2023-04-03T01:17:40.027Z,24.58
2023-04-03T01:18:39.986Z,24.61
2023-04-03T01:19:39.992Z,24.58
2023-04-03T01:20:40.159Z,24.57
2023-04-03T01:21:40.026Z,24.58
2023-04-03T01:22:40.027Z,24.57
2023-04-03T01:23:40.027Z,24.57
2023-04-03T01:24:40.224Z,24.57
2023-04-03T01:25:40.054Z,24.55
2023-04-03T01:26:40.038Z,24.58
2023-04-03T01:27:40.047Z,24.57
2023-04-03T01:28:40.049Z,24.57
2023-04-03T01:29:40.071Z,24.58
2023-04-03T01:30:40.069Z,24.58
2023-04-03T01:31:40.154Z,24.58
2023-04-03T01:32:40.144Z,24.57
2023-04-03T01:33:40.094Z,24.58
2023-04-03T01:34:40.113Z,24.58
2023-04-03T01:35:40.118Z,24.58
2023-04-03T01:36:40.120Z,24.61
2023-04-03T01:37:40.121Z,24.58
2023-04-03T01:38:40.136Z,24.60
2023-04-03T01:39:40.139Z,24.61
2023-04-03T01:40:40.145Z,24.58
2023-04-03T01:41:40.156Z,24.58
2023-04-03T01:42:40.164Z,24.58
2023-04-03T01:43:40.169Z,24.60
2023-04-03T01:44:40.184Z,24.57
2023-04-03T01:45:40.319Z,24.58
2023-04-03T01:46:40.318Z,24.57
2023-04-03T01:47:40.386Z,24.57
2023-04-03T01:48:40.362Z,24.57
2023-04-03T01:49:40.392Z,24.57
2023-04-03T01:50:40.428Z,24.58
2023-04-03T01:51:40.460Z,24.55
2023-04-03T01:52:40.485Z,24.58
2023-04-03T01:53:40.506Z,24.55
2023-04-03T01:54:40.564Z,24.58
2023-04-03T01:55:40.561Z,24.57
2023-04-03T01:56:40.613Z,24.54
2023-04-03T01:57:40.607Z,24.55
2023-04-03T01:58:40.735Z,24.58
2023-04-03T01:59:40.656Z,24.57
2023-04-03T02:00:40.676Z,24.55
2023-04-03T02:01:40.756Z,24.58
2023-04-03T02:02:40.757Z,24.57
2023-04-03T02:03:40.820Z,24.57
2023-04-03T02:04:41.033Z,24.55
2023-04-03T02:05:40.835Z,24.54
2023-04-03T02:06:40.830Z,24.55
2023-04-03T02:07:40.830Z,24.54
2023-04-03T02:08:40.846Z,24.55
2023-04-03T02:09:40.871Z,24.57
2023-04-03T02:10:40.890Z,24.55
2023-04-03T02:11:40.918Z,24.57
2023-04-03T02:12:40.936Z,24.55
2023-04-03T02:13:40.955Z,24.57
2023-04-03T02:14:40.979Z,24.54
2023-04-03T02:15:41.005Z,24.55
2023-04-03T02:16:41.105Z,24.55
2023-04-03T02:17:41.070Z,24.54
2023-04-03T02:18:41.071Z,24.55
2023-04-03T02:19:41.158Z,24.54
2023-04-03T02:20:41.172Z,24.55
2023-04-03T02:21:41.223Z,24.55
2023-04-03T02:22:41.277Z,24.58
2023-04-03T02:23:41.332Z,24.57
2023-04-03T02:24:41.392Z,24.55
2023-04-03T02:25:41.453Z,24.55
2023-04-03T02:26:41.495Z,24.54
2023-04-03T02:27:41.570Z,24.54
2023-04-03T02:28:41.610Z,24.57
2023-04-03T02:29:42.274Z,24.54
2023-04-03T02:30:41.789Z,24.55
2023-04-03T02:31:41.784Z,24.57
2023-04-03T02:32:41.938Z,24.55
2023-04-03T02:33:41.902Z,24.54
2023-04-03T02:34:41.957Z,24.57
2023-04-03T02:35:42.060Z,24.54
2023-04-03T02:36:42.065Z,24.54
2023-04-03T02:37:42.122Z,24.57
2023-04-03T02:38:42.318Z,24.57
2023-04-03T02:39:42.228Z,24.55
2023-04-03T02:40:42.280Z,24.55
2023-04-03T02:41:42.345Z,24.54
2023-04-03T02:42:42.401Z,24.55
2023-04-03T02:43:42.451Z,24.54
2023-04-03T02:44:42.595Z,24.55
2023-04-03T02:45:42.567Z,24.55
2023-04-03T02:46:42.622Z,24.55
2023-04-03T02:47:42.740Z,24.55
2023-04-03T02:48:42.736Z,24.55
2023-04-03T02:49:42.795Z,24.55
2023-04-03T02:50:42.844Z,24.57
2023-04-03T02:51:42.924Z,24.57
2023-04-03T02:52:42.953Z,24.54
2023-04-03T02:53:43.005Z,24.57
2023-04-03T02:54:43.062Z,24.55
2023-04-03T02:55:43.144Z,24.55
2023-04-03T02:56:43.177Z,24.55
2023-04-03T02:57:43.247Z,24.55
2023-04-03T02:58:43.294Z,24.54
2023-04-03T02:59:43.347Z,24.55
2023-04-03T03:00:43.409Z,24.55
2023-04-03T03:01:43.513Z,24.55
2023-04-03T03:02:43.545Z,24.57
2023-04-03T03:03:43.565Z,24.55
2023-04-03T03:04:43.729Z,24.54
2023-04-03T03:05:43.682Z,24.57
2023-04-03T03:06:44.965Z,24.54
2023-04-03T03:07:43.844Z,24.58
2023-04-03T03:08:43.852Z,24.55
2023-04-03T03:09:43.912Z,24.57
2023-04-03T03:10:43.961Z,24.54
2023-04-03T03:11:44.020Z,24.57
2023-04-03T03:12:44.077Z,24.55
2023-04-03T03:13:44.124Z,24.54
2023-04-03T03:14:44.170Z,24.55
2023-04-03T03:15:44.235Z,24.55
2023-04-03T03:16:44.276Z,24.54
2023-04-03T03:17:44.359Z,24.53
2023-04-03T03:18:44.388Z,24.54
2023-04-03T03:19:44.767Z,24.55
2023-04-03T03:20:44.483Z,24.54
2023-04-03T03:21:44.538Z,24.58
2023-04-03T03:22:44.915Z,24.55
2023-04-03T03:23:44.677Z,24.54
2023-04-03T03:24:44.711Z,24.55
2023-04-03T03:25:44.791Z,24.57
2023-04-03T03:26:44.883Z,24.53
2023-04-03T03:27:44.887Z,24.54
2023-04-03T03:28:44.942Z,24.54
2023-04-03T03:29:44.998Z,24.53
2023-04-03T03:30:45.050Z,24.55
2023-04-03T03:31:45.163Z,24.55
2023-04-03T03:32:45.189Z,24.54
2023-04-03T03:33:45.223Z,24.54
2023-04-03T03:34:45.274Z,24.54
2023-04-03T03:35:45.337Z,24.53
2023-04-03T03:36:45.332Z,24.53
2023-04-03T03:37:45.341Z,24.55
2023-04-03T03:38:45.371Z,24.53
2023-04-03T03:39:45.425Z,24.53
2023-04-03T03:40:45.420Z,24.54
2023-04-03T03:41:45.442Z,24.57
2023-04-03T03:42:45.465Z,24.53
2023-04-03T03:43:45.482Z,24.53
2023-04-03T03:44:45.506Z,24.53
2023-04-03T03:45:45.524Z,24.54
2023-04-03T03:46:45.562Z,24.51
2023-04-03T03:47:45.643Z,24.51
2023-04-03T03:48:45.607Z,24.57
2023-04-03T03:49:45.625Z,24.54
2023-04-03T03:50:45.642Z,24.55
2023-04-03T03:51:45.668Z,24.57
2023-04-03T03:52:45.701Z,24.54
2023-04-03T03:53:45.722Z,24.55
2023-04-03T03:54:45.741Z,24.55
2023-04-03T03:55:45.793Z,24.53
2023-04-03T03:56:45.796Z,24.55
2023-04-03T03:57:45.817Z,24.57
2023-04-03T03:58:45.843Z,24.54
2023-04-03T03:59:45.878Z,24.57
2023-04-03T04:00:45.898Z,24.57
2023-04-03T04:01:45.963Z,24.55
2023-04-03T04:02:46.009Z,24.57
2023-04-03T04:03:46.066Z,24.54
2023-04-03T04:04:46.005Z,24.54
2023-04-03T04:05:46.040Z,24.54
2023-04-03T04:06:46.059Z,24.53
2023-04-03T04:07:46.092Z,24.55
2023-04-03T04:08:46.132Z,24.53
2023-04-03T04:09:46.155Z,24.55
2023-04-03T04:10:46.178Z,24.55
2023-04-03T04:11:46.258Z,24.54
2023-04-03T04:12:46.243Z,24.55
2023-04-03T04:13:46.258Z,24.55
2023-04-03T04:14:46.285Z,24.53
2023-04-03T04:15:46.341Z,24.53
2023-04-03T04:16:46.409Z,24.53
2023-04-03T04:17:47.107Z,24.53
2023-04-03T04:18:46.398Z,24.53
2023-04-03T04:19:46.426Z,24.54
2023-04-03T04:20:46.830Z,24.54
2023-04-03T04:21:46.489Z,24.54
2023-04-03T04:22:46.510Z,24.54
2023-04-03T04:23:46.539Z,24.53
2023-04-03T04:24:46.558Z,24.55
2023-04-03T04:25:46.644Z,24.54
2023-04-03T04:26:46.613Z,24.54
2023-04-03T04:27:46.670Z,24.53
2023-04-03T04:28:46.692Z,24.54
2023-04-03T04:29:46.708Z,24.55
2023-04-03T04:30:46.742Z,24.55
2023-04-03T04:31:46.756Z,24.54
2023-04-03T04:32:46.851Z,24.53
2023-04-03T04:33:46.803Z,24.54
2023-04-03T04:34:46.866Z,24.53
2023-04-03T04:35:46.894Z,24.55
2023-04-03T04:36:46.920Z,24.53
2023-04-03T04:37:46.910Z,24.55
2023-04-03T04:38:46.931Z,24.53
2023-04-03T04:39:46.956Z,24.54
2023-04-03T04:40:46.977Z,24.54
2023-04-03T04:41:47.022Z,24.53
2023-04-03T04:42:47.037Z,24.55
2023-04-03T04:43:47.083Z,24.54
2023-04-03T04:44:47.087Z,24.53
2023-04-03T04:45:47.152Z,24.53
2023-04-03T04:46:47.154Z,24.55
2023-04-03T04:47:47.230Z,24.53
2023-04-03T04:48:47.220Z,24.54
2023-04-03T04:49:47.253Z,24.55
2023-04-03T04:50:47.285Z,24.54
2023-04-03T04:51:51.985Z,24.54
2023-04-03T04:52:47.324Z,24.53
2023-04-03T04:53:47.329Z,24.53
2023-04-03T04:54:47.329Z,24.53
2023-04-03T04:55:47.342Z,24.54
2023-04-03T04:56:47.344Z,24.53
2023-04-03T04:57:47.353Z,24.51
2023-04-03T04:58:47.353Z,24.54
2023-04-03T04:59:47.382Z,24.57
2023-04-03T05:00:47.357Z,24.51
2023-04-03T05:01:47.401Z,24.51
2023-04-03T05:02:47.393Z,24.53
2023-04-03T05:03:47.368Z,24.54
2023-04-03T05:04:47.428Z,24.53
2023-04-03T05:05:47.369Z,24.53
2023-04-03T05:06:47.391Z,24.53
2023-04-03T05:07:47.386Z,24.53
2023-04-03T05:08:47.383Z,24.53
2023-04-03T05:09:47.384Z,24.54
2023-04-03T05:10:47.379Z,24.53
2023-04-03T05:11:47.387Z,24.53
2023-04-03T05:12:47.400Z,24.53
2023-04-03T05:13:47.389Z,24.51
2023-04-03T05:14:47.386Z,24.53
2023-04-03T05:15:47.423Z,24.53
2023-04-03T05:16:49.319Z,24.53
2023-04-03T05:17:47.449Z,24.51
2023-04-03T05:18:47.390Z,24.51
2023-04-03T05:19:47.504Z,24.54
2023-04-03T05:20:47.398Z,24.53
2023-04-03T05:21:47.417Z,24.55
2023-04-03T05:22:47.407Z,24.55
2023-04-03T05:23:47.407Z,24.53
2023-04-03T05:24:47.419Z,24.54
2023-04-03T05:25:47.411Z,24.53
2023-04-03T05:26:47.425Z,24.53
2023-04-03T05:27:47.422Z,24.54
2023-04-03T05:28:47.417Z,24.53
2023-04-03T05:29:47.421Z,24.55
2023-04-03T05:30:47.425Z,24.55
2023-04-03T05:31:47.473Z,24.53
2023-04-03T05:32:47.467Z,24.54
2023-04-03T05:33:47.447Z,24.53
2023-04-03T05:34:47.458Z,24.54
2023-04-03T05:35:47.534Z,24.51
2023-04-03T05:36:47.572Z,24.53
2023-04-03T05:37:47.633Z,24.54
2023-04-03T05:38:47.664Z,24.53
2023-04-03T05:39:47.704Z,24.53
2023-04-03T05:40:47.748Z,24.51
2023-04-03T05:41:47.784Z,24.51
2023-04-03T05:42:47.807Z,24.51
2023-04-03T05:43:47.839Z,24.50
2023-04-03T05:44:47.878Z,24.54
2023-04-03T05:45:47.925Z,24.53
2023-04-03T05:46:47.950Z,24.54
2023-04-03T05:47:48.037Z,24.54
2023-04-03T05:48:48.025Z,24.51
2023-04-03T05:49:48.067Z,24.53
2023-04-03T05:50:48.331Z,24.54
2023-04-03T05:51:48.127Z,24.53
2023-04-03T05:52:48.173Z,24.53
2023-04-03T05:53:48.202Z,24.51
2023-04-03T05:54:48.231Z,24.51
2023-04-03T05:55:48.269Z,24.53
2023-04-03T05:56:48.305Z,24.51
2023-04-03T05:57:48.345Z,24.51
2023-04-03T05:58:48.403Z,24.51
2023-04-03T05:59:48.409Z,24.53
2023-04-03T06:00:48.457Z,24.55
2023-04-03T06:01:48.477Z,24.53
2023-04-03T06:02:48.659Z,24.53
2023-04-03T06:03:48.655Z,24.53
2023-04-03T06:04:48.750Z,24.53
2023-04-03T06:05:48.618Z,24.53
2023-04-03T06:06:48.643Z,24.53
2023-04-03T06:07:48.681Z,24.54
2023-04-03T06:08:48.713Z,24.54
2023-04-03T06:09:48.745Z,24.53
2023-04-03T06:10:48.781Z,24.51
2023-04-03T06:11:48.823Z,24.51
2023-04-03T06:12:48.842Z,24.54
2023-04-03T06:13:48.867Z,24.51
2023-04-03T06:14:48.901Z,24.53
2023-04-03T06:15:48.935Z,24.55
2023-04-03T06:16:49.025Z,24.53
2023-04-03T06:17:49.012Z,24.53
2023-04-03T06:18:49.035Z,24.51
2023-04-03T06:19:49.087Z,24.53
2023-04-03T06:20:49.095Z,24.53
2023-04-03T06:21:49.132Z,24.53
2023-04-03T06:22:49.170Z,24.51
2023-04-03T06:23:49.394Z,24.53
2023-04-03T06:24:50.260Z,24.54
2023-04-03T06:25:49.261Z,24.51
2023-04-03T06:26:49.289Z,24.53
2023-04-03T06:27:49.337Z,24.55
2023-04-03T06:28:49.363Z,24.54
2023-04-03T06:29:49.394Z,24.54
2023-04-03T06:30:49.447Z,24.54
2023-04-03T06:31:49.514Z,24.55
2023-04-03T06:32:49.539Z,24.53
2023-04-03T06:33:49.519Z,24.57
2023-04-03T06:34:49.558Z,24.54
2023-04-03T06:35:49.644Z,24.55
2023-04-03T06:36:50.034Z,24.55
2023-04-03T06:37:49.813Z,24.54
2023-04-03T06:38:49.698Z,24.55
2023-04-03T06:39:49.723Z,24.54
2023-04-03T06:40:49.752Z,24.54
2023-04-03T06:41:49.789Z,24.54
2023-04-03T06:42:49.820Z,24.53
2023-04-03T06:43:49.851Z,24.55
2023-04-03T06:44:49.881Z,24.55
2023-04-03T06:45:49.991Z,24.53
2023-04-03T06:46:49.952Z,24.54
2023-04-03T06:47:50.029Z,24.57
2023-04-03T06:48:50.032Z,24.55
2023-04-03T06:49:50.082Z,24.54
2023-04-03T06:50:50.385Z,24.53
2023-04-03T06:51:50.589Z,24.54
2023-04-03T06:52:50.279Z,24.54
2023-04-03T06:53:50.341Z,24.53
2023-04-03T06:54:50.568Z,24.55
2023-04-03T06:55:50.478Z,24.54
2023-04-03T06:56:50.582Z,24.53
2023-04-03T06:57:50.667Z,24.57
2023-04-03T06:58:50.683Z,24.55
2023-04-03T06:59:50.751Z,24.55
2023-04-03T07:00:50.798Z,24.54
2023-04-03T07:01:50.928Z,24.57
2023-04-03T07:02:50.953Z,24.54
2023-04-03T07:03:50.996Z,24.54
2023-04-03T07:04:51.099Z,24.54
2023-04-03T07:05:51.127Z,24.53
2023-04-03T07:06:51.193Z,24.55
2023-04-03T07:07:51.306Z,24.53
2023-04-03T07:08:51.372Z,24.55
2023-04-03T07:09:51.403Z,24.55
2023-04-03T07:10:51.466Z,24.55
2023-04-03T07:11:51.543Z,24.55
2023-04-03T07:12:52.426Z,24.55
2023-04-03T07:13:51.679Z,24.54
2023-04-03T07:14:51.747Z,24.54
2023-04-03T07:15:51.803Z,24.57
2023-04-03T07:16:51.963Z,24.57
2023-04-03T07:17:51.996Z,24.55
2023-04-03T07:18:52.051Z,24.57
2023-04-03T07:19:52.106Z,24.54
2023-04-03T07:20:52.181Z,24.54
2023-04-03T07:21:52.646Z,24.57
2023-04-03T07:22:53.127Z,24.55
2023-04-03T07:23:52.388Z,24.57
2023-04-03T07:24:52.504Z,24.57
2023-04-03T07:25:52.554Z,24.57
2023-04-03T07:26:52.748Z,24.55
2023-04-03T07:27:52.701Z,24.55
2023-04-03T07:28:52.762Z,24.58
2023-04-03T07:29:53.903Z,24.55
2023-04-03T07:30:52.834Z,24.55
2023-04-03T07:31:53.395Z,24.57
2023-04-03T07:32:52.860Z,24.58
2023-04-03T07:33:53.029Z,24.53
2023-04-03T07:34:53.448Z,24.55
2023-04-03T07:35:52.568Z,24.55
2023-04-03T07:36:51.878Z,24.57
2023-04-03T07:37:52.898Z,24.55
2023-04-03T07:38:52.998Z,24.58
2023-04-03T07:39:53.028Z,24.55
2023-04-03T07:40:53.096Z,24.55
2023-04-03T07:41:53.161Z,24.55
2023-04-03T07:42:53.252Z,24.54
2023-04-03T07:43:53.295Z,24.54
2023-04-03T07:44:53.355Z,24.53
2023-04-03T07:45:53.503Z,24.57
2023-04-03T07:46:53.489Z,24.57
2023-04-03T07:47:53.552Z,24.54
2023-04-03T07:48:53.576Z,24.53
2023-04-03T07:49:53.636Z,24.55
2023-04-03T07:50:53.697Z,24.57
2023-04-03T07:51:53.766Z,24.57
2023-04-03T07:52:53.833Z,24.55
2023-04-03T07:53:53.901Z,24.55
2023-04-03T07:54:53.999Z,24.58
2023-04-03T07:55:54.030Z,24.54
2023-04-03T07:56:54.129Z,24.54
2023-04-03T07:57:54.170Z,24.55
2023-04-03T07:58:54.231Z,24.54
2023-04-03T07:59:54.298Z,24.54
2023-04-03T08:00:54.361Z,24.57
2023-04-03T08:01:54.435Z,24.57
2023-04-03T08:02:54.581Z,24.55
2023-04-03T08:03:54.760Z,24.57
2023-04-03T08:04:54.786Z,24.57
2023-04-03T08:05:54.706Z,24.57
2023-04-03T08:06:54.745Z,24.55
2023-04-03T08:07:54.809Z,24.55
2023-04-03T08:08:54.884Z,24.57
2023-04-03T08:09:54.946Z,24.54
2023-04-03T08:10:55.043Z,24.55
2023-04-03T08:11:55.072Z,24.55
2023-04-03T08:12:55.283Z,24.57
2023-04-03T08:13:55.229Z,24.55
2023-04-03T08:14:55.275Z,24.57
2023-04-03T08:15:55.303Z,24.58
2023-04-03T08:16:55.363Z,24.57
2023-04-03T08:17:55.467Z,24.57
2023-04-03T08:18:55.405Z,24.57
2023-04-03T08:19:55.460Z,24.57
2023-04-03T08:20:55.469Z,24.57
2023-04-03T08:21:55.537Z,24.57
2023-04-03T08:22:55.543Z,24.55
2023-04-03T08:23:55.799Z,24.55
2023-04-03T08:24:59.412Z,24.60
2023-04-03T08:25:55.613Z,24.58
2023-04-03T08:26:55.643Z,24.58
2023-04-03T08:27:55.636Z,24.57
2023-04-03T08:28:55.669Z,24.57
2023-04-03T08:29:55.670Z,24.60
2023-04-03T08:30:55.680Z,24.58
2023-04-03T08:31:55.675Z,24.58
2023-04-03T08:32:55.745Z,24.60
2023-04-03T08:33:55.703Z,24.58
2023-04-03T08:34:55.703Z,24.58
2023-04-03T08:35:55.785Z,24.60
2023-04-03T08:36:55.733Z,24.58
2023-04-03T08:37:55.733Z,24.60
2023-04-03T08:38:55.750Z,24.58
2023-04-03T08:39:55.757Z,24.61
2023-04-03T08:40:55.758Z,24.61
2023-04-03T08:41:55.767Z,24.62
2023-04-03T08:42:55.908Z,24.62
2023-04-03T08:43:55.834Z,24.62
2023-04-03T08:44:55.870Z,24.61
2023-04-03T08:45:55.932Z,24.61
2023-04-03T08:46:55.919Z,24.61
2023-04-03T08:47:56.639Z,24.62
2023-04-03T08:48:55.973Z,24.64
2023-04-03T08:49:56.041Z,24.65
2023-04-03T08:50:56.090Z,24.64
2023-04-03T08:51:56.147Z,24.64
2023-04-03T08:52:56.225Z,24.61
2023-04-03T08:53:56.275Z,24.65
2023-04-03T08:54:56.345Z,24.65
2023-04-03T08:55:56.398Z,24.64
2023-04-03T08:56:56.516Z,24.67
2023-04-03T08:57:56.511Z,24.65
2023-04-03T08:58:56.690Z,24.67
2023-04-03T08:59:56.637Z,24.68
2023-04-03T09:00:56.725Z,24.65
2023-04-03T09:01:56.804Z,24.65
2023-04-03T09:02:56.929Z,24.65
2023-04-03T09:03:57.000Z,24.67
2023-04-03T09:04:56.941Z,24.67
2023-04-03T09:05:57.019Z,24.65
2023-04-03T09:06:57.065Z,24.67
2023-04-03T09:07:57.117Z,24.68
2023-04-03T09:08:57.200Z,24.68
2023-04-03T09:09:57.241Z,24.65
2023-04-03T09:10:57.291Z,24.65
2023-04-03T09:11:57.351Z,24.67
2023-04-03T09:12:57.407Z,24.70
2023-04-03T09:13:57.473Z,24.68
2023-04-03T09:14:57.697Z,24.68
2023-04-03T09:15:57.623Z,24.65
2023-04-03T09:16:57.635Z,24.67
2023-04-03T09:17:57.798Z,24.65
2023-04-03T09:18:57.770Z,24.67
2023-04-03T09:19:57.809Z,24.68
2023-04-03T09:20:57.873Z,24.67
2023-04-03T09:21:57.939Z,24.67
2023-04-03T09:22:58.025Z,24.65
2023-04-03T09:23:58.058Z,24.67
2023-04-03T09:24:58.120Z,24.68
2023-04-03T09:25:58.171Z,24.67
2023-04-03T09:26:58.243Z,24.67
2023-04-03T09:27:58.323Z,24.68
2023-04-03T09:28:58.347Z,24.65
2023-04-03T09:29:58.414Z,24.67
2023-04-03T09:30:58.580Z,24.67
2023-04-03T09:31:58.551Z,24.65
2023-04-03T09:32:58.688Z,24.68
2023-04-03T09:33:58.639Z,24.65
2023-04-03T09:34:59.789Z,24.65
2023-04-03T09:35:58.698Z,24.68
2023-04-03T09:36:58.711Z,24.68
2023-04-03T09:37:58.736Z,24.65
2023-04-03T09:38:58.678Z,24.64
2023-04-03T09:39:58.685Z,24.64
2023-04-03T09:40:58.680Z,24.68
2023-04-03T09:41:58.683Z,24.65
2023-04-03T09:43:01.380Z,24.65
2023-04-03T09:43:58.695Z,24.65
2023-04-03T09:44:58.704Z,24.65
2023-04-03T09:45:58.709Z,24.65
2023-04-03T09:46:59.247Z,24.65
2023-04-03T09:47:58.825Z,24.65
2023-04-03T09:49:08.146Z,24.65
2023-04-03T09:49:58.724Z,24.62
2023-04-03T09:50:58.719Z,24.62
2023-04-03T09:51:58.749Z,24.65
2023-04-03T09:52:58.739Z,24.64
2023-04-03T09:53:58.740Z,24.62
2023-04-03T09:54:58.747Z,24.65
2023-04-03T09:55:58.744Z,24.65
2023-04-03T09:56:58.767Z,24.64
2023-04-03T09:57:58.756Z,24.62
2023-04-03T09:58:58.769Z,24.61
2023-04-03T09:59:58.768Z,24.62
2023-04-03T10:00:58.810Z,24.62
2023-04-03T10:01:58.774Z,24.60
2023-04-03T10:02:58.986Z,24.64
2023-04-03T10:03:59.118Z,24.62
2023-04-03T10:05:09.336Z,24.60
2023-04-03T10:05:58.795Z,24.61
2023-04-03T10:06:58.810Z,24.60
2023-04-03T10:08:03.858Z,24.60
2023-04-03T10:08:58.792Z,24.60
2023-04-03T10:09:58.792Z,24.61
2023-04-03T10:10:58.784Z,24.61
2023-04-03T10:11:58.794Z,24.61
2023-04-03T10:12:58.789Z,24.58
2023-04-03T10:13:58.792Z,24.61
2023-04-03T10:14:58.808Z,24.61
2023-04-03T10:15:58.800Z,24.60
2023-04-03T10:16:58.921Z,24.60
2023-04-03T10:17:58.875Z,24.58
2023-04-03T10:18:58.927Z,24.57
2023-04-03T10:19:58.803Z,24.60
2023-04-03T10:20:58.809Z,24.60
2023-04-03T10:21:57.814Z,24.57
2023-04-03T10:22:58.808Z,24.58
2023-04-03T10:23:58.813Z,24.58
2023-04-03T10:24:58.825Z,24.58
2023-04-03T10:25:58.823Z,24.58
2023-04-03T10:26:58.829Z,24.58
2023-04-03T10:27:58.829Z,24.58
2023-04-03T10:28:58.862Z,24.58
2023-04-03T10:29:58.831Z,24.58
2023-04-03T10:30:58.868Z,24.57
2023-04-03T10:31:58.840Z,24.58
2023-04-03T10:32:58.882Z,24.58
2023-04-03T10:33:58.858Z,24.58
2023-04-03T10:35:05.125Z,24.57
2023-04-03T10:35:58.878Z,24.58
2023-04-03T10:36:58.857Z,24.58
2023-04-03T10:37:58.872Z,24.57
2023-04-03T10:38:58.878Z,24.58
2023-04-03T10:39:58.873Z,24.57
2023-04-03T10:40:58.995Z,24.58
2023-04-03T10:42:13.346Z,24.57
2023-04-03T10:42:58.885Z,24.58
2023-04-03T10:43:58.892Z,24.57
2023-04-03T10:44:58.902Z,24.57
2023-04-03T10:45:58.924Z,24.58
2023-04-03T10:46:58.895Z,24.55
2023-04-03T10:47:58.906Z,24.57
2023-04-03T10:48:58.900Z,24.58
2023-04-03T10:49:59.910Z,24.57
2023-04-03T10:50:59.026Z,24.54
2023-04-03T10:51:58.903Z,24.57
2023-04-03T10:52:58.913Z,24.57
2023-04-03T10:53:58.907Z,24.55
2023-04-03T10:54:58.909Z,24.57
2023-04-03T10:55:59.746Z,24.57
2023-04-03T10:57:09.136Z,24.57
2023-04-03T10:57:59.025Z,24.54
2023-04-03T10:58:58.934Z,24.57
2023-04-03T10:59:58.934Z,24.55
2023-04-03T11:00:58.931Z,24.55
2023-04-03T11:01:59.025Z,24.57
2023-04-03T11:02:59.001Z,24.58
2023-04-03T11:03:59.078Z,24.57
2023-04-03T11:04:58.949Z,24.55
2023-04-03T11:05:58.949Z,24.55
2023-04-03T11:06:59.054Z,24.57
2023-04-03T11:07:58.985Z,24.57
2023-04-03T11:08:58.960Z,24.57
2023-04-03T11:09:58.948Z,24.57
2023-04-03T11:10:58.947Z,24.58
2023-04-03T11:11:58.941Z,24.57
2023-04-03T11:12:58.943Z,24.57
2023-04-03T11:13:58.945Z,24.55
2023-04-03T11:14:58.938Z,24.57
2023-04-03T11:15:58.970Z,24.58
2023-04-03T11:16:58.950Z,24.55
2023-04-03T11:17:58.982Z,24.58
2023-04-03T11:18:58.928Z,24.57
2023-04-03T11:19:59.199Z,24.57
2023-04-03T11:20:59.021Z,24.57
2023-04-03T11:21:59.031Z,24.54
2023-04-03T11:22:59.203Z,24.54
2023-04-03T11:23:59.113Z,24.57
2023-04-03T11:24:59.146Z,24.55
2023-04-03T11:25:59.174Z,24.57
2023-04-03T11:26:59.207Z,24.55
2023-04-03T11:27:59.238Z,24.58
2023-04-03T11:28:59.270Z,24.55
2023-04-03T11:29:59.306Z,24.57
2023-04-03T11:30:59.549Z,24.55
2023-04-03T11:31:59.417Z,24.57
2023-04-03T11:32:59.428Z,24.55
2023-04-03T11:33:59.454Z,24.58
2023-04-03T11:34:59.488Z,24.54
2023-04-03T11:35:59.555Z,24.55
2023-04-03T11:36:59.596Z,24.55
2023-04-03T11:37:59.587Z,24.55
2023-04-03T11:38:59.737Z,24.58
2023-04-03T11:39:59.662Z,24.57
2023-04-03T11:40:59.696Z,24.60
2023-04-03T11:42:10.578Z,24.55
2023-04-03T11:42:59.721Z,24.55
2023-04-03T11:43:59.719Z,24.53
2023-04-03T11:44:59.724Z,24.55
2023-04-03T11:45:59.738Z,24.55
2023-04-03T11:46:59.792Z,24.57
2023-04-03T11:48:02.713Z,24.54
2023-04-03T11:48:59.751Z,24.55
2023-04-03T11:49:59.743Z,24.55
2023-04-03T11:50:59.743Z,24.57
2023-04-03T11:51:59.750Z,24.54
2023-04-03T11:52:59.734Z,24.57
2023-04-03T11:53:59.741Z,24.54
2023-04-03T11:54:59.770Z,24.55
2023-04-03T11:55:59.744Z,24.57
2023-04-03T11:56:59.751Z,24.55
2023-04-03T11:57:59.738Z,24.55
2023-04-03T11:58:59.736Z,24.54
2023-04-03T11:59:58.732Z,24.54
2023-04-03T12:00:59.732Z,24.55
2023-04-03T12:01:59.761Z,24.55
2023-04-03T12:02:59.812Z,24.55
2023-04-03T12:03:59.791Z,24.53
2023-04-03T12:04:59.747Z,24.54
2023-04-03T12:05:59.744Z,24.55
2023-04-03T12:06:59.742Z,24.55
2023-04-03T12:07:59.735Z,24.55
2023-04-03T12:08:59.737Z,24.55
2023-04-03T12:09:59.758Z,24.54
2023-04-03T12:10:59.864Z,24.54
2023-04-03T12:11:59.764Z,24.54
2023-04-03T12:12:59.743Z,24.57
2023-04-03T12:13:59.745Z,24.54
2023-04-03T12:14:59.742Z,24.54
2023-04-03T12:15:59.747Z,24.53
2023-04-03T12:16:59.771Z,24.54
2023-04-03T12:17:59.800Z,24.55
2023-04-03T12:18:59.801Z,24.55
2023-04-03T12:19:59.755Z,24.53
2023-04-03T12:20:59.769Z,24.54
2023-04-03T12:21:59.773Z,24.53
2023-04-03T12:22:59.767Z,24.54
2023-04-03T12:23:59.776Z,24.53
2023-04-03T12:24:59.785Z,24.54
2023-04-03T12:25:59.849Z,24.54
2023-04-03T12:27:00.039Z,24.55
2023-04-03T12:27:59.990Z,24.54
2023-04-03T12:29:00.101Z,24.55
2023-04-03T12:30:00.171Z,24.55
2023-04-03T12:31:00.254Z,24.57
2023-04-03T12:32:00.239Z,24.54
2023-04-03T12:33:11.719Z,24.51
2023-04-03T12:34:00.372Z,24.53
2023-04-03T12:35:00.326Z,24.55
2023-04-03T12:36:01.863Z,24.55
2023-04-03T12:37:00.567Z,24.55
2023-04-03T12:38:00.621Z,24.55
2023-04-03T12:39:00.669Z,24.54
2023-04-03T12:40:00.721Z,24.55
2023-04-03T12:41:00.784Z,24.54
2023-04-03T12:42:00.829Z,24.55
2023-04-03T12:43:02.318Z,24.57
2023-04-03T12:44:00.910Z,24.54
2023-04-03T12:45:01.222Z,24.57
2023-04-03T12:46:00.957Z,24.54
2023-04-03T12:47:00.953Z,24.53
2023-04-03T12:48:00.957Z,24.55
2023-04-03T12:49:00.905Z,24.55
2023-04-03T12:50:00.901Z,24.54
2023-04-03T12:51:00.904Z,24.54
2023-04-03T12:52:00.905Z,24.54
2023-04-03T12:53:00.909Z,24.55